SiktMolnbas
>≥ 10km≥ 10km ≥ 2000ft≥ 2000ft
< 10km< 10km < 2000ft< 2000ft
< 8km< 8km < 1500ft< 1500ft
< 5km< 5km < 1000ft< 1000ft
< 3km< 3km < 500ft< 500ft

Nytt 18 jan 2017:

Nytt 17 jan 2017:

ESNQ (06:20 UTC)

Kiruna flygplats

METAR

ESNQ 210620Z AUTO 21015KT 9999 NCD 07/03 Q0986=

TAF

ESNQ 210530Z 2106/2115 21015KT CAVOK TEMPO 2108/2115 21016G26KT=

ESNG (06:20 UTC)

Gällivare (Kavaheden), Lapland Airport

METAR

ESNG 210620Z 20007KT 170V260 CAVOK 09/01 Q0989=

TAF

ESNG 210530Z 2106/2111 20010KT CAVOK PROB40 2108/2111 21015G25KT=

ESPA (06:20 UTC)

Luleå Airport (Kallax)

METAR

ESPA 210620Z 22010KT CAVOK 10/04 Q0995=

TAF

ESPA 210530Z 2106/2115 21013KT CAVOK RMK MIL=

ESNL (06:20 UTC)

Lycksele flygplats

METAR

ESNL 210620Z AUTO 12006KT 9999 NCD 08/01 Q0996=

TAF

Ingen TAF hittades.

ESNU (06:20 UTC)

Umeå City Airport

METAR

ESNU 210620Z 21008KT CAVOK 10/06 Q0998=

TAF

RA

ESNU 210530Z 2106/2115 21010KT CAVOK PROB40 2114/2115 4000 RADZ BKN006=

ESNO (06:20 UTC)

Örnsköldsvik flygplats

METAR

ESNO 210620Z 21006KT CAVOK 09/03 Q0999=

TAF

RA

ESNO 210530Z 2106/2115 21006KT CAVOK BECMG 2113/2115 BKN008 TEMPO 2113/2115 4000 RADZ=

ESNK (06:20 UTC)

Kramfors-Sollefteå flygplats

METAR

ESNK 210620Z 15004KT 120V200 CAVOK 10/05 Q0999=

TAF

ESNK 210530Z 2105/2109 17005KT CAVOK=

ESNN (06:20 UTC)

Sundsvall-Härnösands flygplats (Midlanda)

METAR

ESNN 210620Z 15004KT CAVOK 10/07 Q0999=

TAF

RA

ESNN 210530Z 2106/2115 16006KT CAVOK TEMPO 2110/2114 RA BKN008=

ESNZ (06:20 UTC)

Åre Östersund Airport (Frösön)

METAR

ESNZ 210620Z 18009KT CAVOK 08/01 Q0996=

TAF

RA

ESNZ 210530Z 2106/2115 21010KT CAVOK BECMG 2111/2113 15008KT BECMG 2112/2114 BKN005 PROB40 2113/2115 4000 RADZ=

ESNS (06:20 UTC)

Skellefteå flygplats

METAR

ESNS 210620Z 21007KT CAVOK 08/04 Q0997=

TAF

ESNS 210530Z 2106/2115 21005KT CAVOK=

ESGT (06:20 UTC)

Trollhättan-Vänersborgs flygplats (Malöga flygplats)

METAR

ESGT 210620Z 17011KT CAVOK 16/14 Q0997=

TAF

RACB

ESGT 210530Z 2106/2115 18015KT CAVOK BECMG 2110/2112 21025G38KT TEMPO 2112/2115 4000 RA BKN025CB=

ESGG (06:20 UTC)

Göteborg-Landvetter flygplats

METAR

ESGG 210620Z 15011KT CAVOK 15/13 Q0998=

TAF

SHRACB

ESGG 210530Z 2106/2206 16014KT CAVOK BECMG 2108/2110 16018G28KT BECMG 2112/2114 23025G42KT TEMPO 2112/2115 4000 RA BKN012 BKN025CB TEMPO 2118/2202 SHRA BKN025CB=

ESMT (06:20 UTC)

Halmstads flygplats

METAR

ESMT 210620Z 15010KT CAVOK 18/14 Q1000=

TAF

RACB

ESMT 210452Z 2106/2115 15012KT 9999 FEW030 TEMPO 2109/2112 19018G30KT BECMG 2112/2114 21022G40KT 4000 RA BKN010 BKN030CB=

ESTA (06:20 UTC)

Ängelholm-Helsingborg flygplats

METAR

ESTA 210620Z 16015KT CAVOK 18/13 Q1001=

TAF

RACB

ESTA CCY 210601Z 2106/2115 15012KT 9999 FEW030 TEMPO 2109/2112 18018G30KT BECMG 2112/2114 24022G40KT 4000 RA BKN010 BKN030CB=

ESTL (06:20 UTC)

Ljungbyheds flygplats

METAR

ESTL 210620Z 17012KT CAVOK 19/13 Q1002=

TAF

RACB

ESTL 210452Z 2106/2115 17012KT 9999 FEW030 TEMPO 2109/2112 19015G30KT BECMG 2112/2114 21020G40KT 4000 RA BKN010 BKN030CB=

ESMS (06:20 UTC)

Malmö Airport

METAR

ESMS 210620Z 18016KT CAVOK 20/13 Q1003=

TAF

SHRACB

ESMS 210455Z 2106/2206 17015KT 9999 FEW030 TEMPO 2108/2112 17018G35KT BECMG 2112/2114 21022G42KT 4000 RA BKN010 BKN030CB BECMG 2114/2116 24015G30KT 9999 NSW SCT030 TEMPO 2116/2124 FEW020CB TEMPO 2200/2206 SHRA SCT020CB=

ESMK (06:20 UTC)

Kristianstad Airport

METAR

ESMK 210620Z 16010KT CAVOK 20/14 Q1003=

TAF

RACB

ESMK 210452Z 2106/2115 17012KT 9999 FEW030 TEMPO 2109/2113 19018G32KT BECMG 2113/2115 21022G40KT 4000 RA BKN010 BKN030CB=

ESDF (06:20 UTC)

Ronneby flygplats

METAR

ESDF 210620Z 17009KT CAVOK 19/15 Q1005=

TAF

ESDF 210435Z 2105/2115 15008KT CAVOK BECMG 2106/2109 19015G28KT TEMPO 2110/2115 20015G35KT RMK MIL=

ESMQ (06:20 UTC)

Kalmar Airport

METAR

ESMQ 210620Z 18011KT CAVOK 17/16 Q1005=

TAF

ESMQ 210530Z 2106/2115 18012KT CAVOK BECMG 2108/2110 18018G32KT=

ESMX (06:20 UTC)

Växjö, Smaland Airport

METAR

ESMX 210620Z 14010KT CAVOK 16/14 Q1003=

TAF

TSCB

ESMX 210530Z 2106/2115 16012KT CAVOK BECMG 2108/2110 18018G32KT BECMG 2114/2115 24025G40KT TEMPO 2114/2115 4000 TSRA BKN025CB=

ESGJ (06:20 UTC)

Jönköping Airport

METAR

ESGJ 210620Z 17011KT CAVOK 15/14 Q1001=

TAF

TSCB

ESGJ 210530Z 2106/2115 16012KT CAVOK BECMG 2108/2110 18018G32KT BECMG 2114/2115 24025G40KT TEMPO 2114/2115 4000 TSRA BKN025CB=

ESSA (06:20 UTC)

Stockholm-Arlanda flygplats

METAR

ESSA 210620Z 16009KT 9999 BKN053 13/13 Q1003 BECMG SCT006 BKN020=

TAF

TSSHRACB

ESSA 210530Z 2106/2206 15006KT 9999 BKN004 BECMG 2106/2108 FEW010 BECMG 2109/2111 17015G25KT TEMPO 2117/2119 VRB22G42KT 4000 TSRA BKN020CB TEMPO 2203/2206 23018G30KT SHRA BKN030CB=

ESSB (06:20 UTC)

Stockholm-Bromma flygplats

METAR

ESSB 210620Z 15006KT 9999 BKN048 15/14 Q1004=

TAF

ESSB 210530Z 2106/2115 16008KT 9999 BKN008 BECMG 2106/2107 BKN025 BECMG 2110/2112 16018G28KT=

ESKN (06:20 UTC)

Stockholm-Skavsta flygplats

METAR

ESKN 210620Z 16009KT CAVOK 16/13 Q1003=

TAF

TSCB

ESKN 210530Z 2106/2206 18010KT CAVOK BECMG 2109/2111 16016G26KT TEMPO 2116/2118 VRB22G44KT 4000 TSRA BKN025CB BECMG 2116/2118 22018G28KT=

ESSP (06:20 UTC)

Norrköping flygplats

METAR

ESSP 210620Z 16008KT CAVOK 16/14 Q1003=

TAF

ESSP 210530Z 2106/2115 17012KT CAVOK BECMG 2110/2112 16018G32KT=

ESSL (06:20 UTC)

Linköping - SAAB Flygplats

METAR

ESSL 210620Z 17009KT 140V200 CAVOK 17/14 Q1002=

TAF

ESSL 210450Z 2105/2114 17010G18KT CAVOK BECMG 2107/2109 18015G25KT BECMG 2109/2111 18019G30KT RMK MIL=

ESSV (06:20 UTC)

Visby flygplats

METAR

ESSV 210620Z 17012KT CAVOK 17/14 Q1006=

TAF

ESSV 210530Z 2106/2115 17014KT CAVOK BECMG 2110/2112 18025G35KT=

ESOW (06:20 UTC)

Stockholm-Västerås flygplats

METAR

ESOW 210620Z 16010KT 9999 BKN037 14/12 Q1002=

TAF

ESOW 210530Z 2106/2115 16010KT 9999 BKN004 BECMG 2106/2107 FEW010 BKN040=

ESOE (06:20 UTC)

Örebro flygplats

METAR

BR

ESOE 210620Z VRB03KT 8000 BR SCT012 BKN038 13/13 Q1000=

TAF

RA

ESOE 210530Z 2106/2115 16006KT 9999 -RADZ BKN006 BECMG 2106/2107 NSC BECMG 2111/2113 19015G25KT=

ESOK (06:20 UTC)

Karlstad Airport

METAR

BR

ESOK 210620Z 16007KT 7000 BR SCT003 BKN005 13/13 Q0998=

TAF

TSSHRACB

ESOK 210530Z 2106/2115 12006KT 9999 -RADZ BKN003 BECMG 2106/2108 18012KT FEW008 BECMG 2110/2112 17017G27KT TEMPO 2113/2115 VRB20G40KT SHRA TS BKN025CB=

ESSD (06:20 UTC)

Borlänge, Dala Airport

METAR

ESSD 210620Z 12004KT 9000 BKN007 10/10 Q1000=

TAF

DZBR

ESSD 210530Z 2106/2115 16007KT 9000 -DZ FEW008 BKN020 TEMPO 2106/2109 3000 DZ BR BKN004=

ESGR (06:20 UTC)

Skövde flygplats

METAR

ESGR 210620Z AUTO 16007KT 9999 FEW160/// 16/12 Q1000=

TAF

Ingen TAF hittades.

ESIB (06:20 UTC)

Såtenäs

METAR

ESIB 210620Z 16013KT 9999 FEW035 BKN200 16/15 Q0997=

TAF

Ingen TAF hittades.

ESNV (06:20 UTC)

Vilhelmina flygplats

METAR

ESNV 210620Z AUTO 14003KT 090V170 9999 NCD 06/01 Q0996=

TAF

Ingen TAF hittades.

ESST (06:20 UTC)

Torsby flygplats (Fryklanda)

METAR

DZ

ESST 210620Z AUTO 11003KT 050V210 2700 +DZ FEW005/// BKN010/// OVC014/// 08/08 Q0998 REDZ=

TAF

Ingen TAF hittades.

ESUT (06:20 UTC)

Hemavans flygplats

METAR

ESUT 210620Z AUTO 21008KT 170V250 9999 FEW026/// SCT034/// 07/03 Q0992 REDZ=

TAF

Ingen TAF hittades.

ESNX (06:20 UTC)

Arvidsjaur flygplats

METAR

ESNX 210620Z 23004KT 150V320 CAVOK 08/00 Q0994=

TAF

ESNX 210530Z 2106/2115 19008KT CAVOK=

ESIA (06:20 UTC)

Karlsborg

METAR

ESIA 210620Z 19008KT CAVOK 15/13 Q1001=

TAF

Ingen TAF hittades.

ESUP (06:20 UTC)

Pajala

METAR

ESUP 210620Z AUTO 20010KT 160V230 9999 NCD 09/02 Q0990=

TAF

Ingen TAF hittades.

ESPE (06:20 UTC)

Vidsel

METAR

ESPE 210620Z 25006KT 210V280 CAVOK 08/02 Q0993=

TAF

ESPE 210530Z 2106/2110 24005KT CAVOK RMK MIL=

ESCM (06:20 UTC)

Uppsala

METAR

ESCM 210620Z 14008KT 9999 BKN005 OVC007 12/11 Q1003=

TAF

Ingen TAF hittades.

ESKM (06:20 UTC)

Mora/Siljan

METAR

RA

ESKM 210620Z AUTO 10002KT 9999 RA FEW009/// BKN027/// OVC035/// 08/07 Q1000 REDZ=

TAF

Ingen TAF hittades.

EKRN (06:20 UTC)

Bornholm Airport

METAR

EKRN 210620Z AUTO 16013KT 9999NDV NCD 19/16 Q1006=

TAF

RACB

EKRN 210453Z 2106/2115 15010KT 9999 FEW030 BECMG 2106/2108 18020KT TEMPO 2108/2113 19022G32KT BECMG 2113/2115 26028G45KT 4000 RA BKN012 BKN030CB=

EFIV (06:20 UTC)

Ivalo Airport

METAR

EFIV 210620Z AUTO 22016KT CAVOK 09/04 Q0986=

TAF

Ingen TAF hittades.

EFKT (06:20 UTC)

Kittilä Airport

METAR

EFKT 210620Z AUTO 23013G24KT CAVOK 09/04 Q0989=

TAF

Ingen TAF hittades.

EFRO (06:20 UTC)

Rovaniemi Airport

METAR

EFRO 210620Z 22013KT CAVOK 09/04 Q0993=

TAF

SHRAFGCB

EFRO 210525Z 2106/2206 21014KT CAVOK TEMPO 2109/2117 21020G30KT BECMG 2118/2120 15009KT TEMPO 2120/2122 7000 SHRA BKN008 SCT025CB BECMG 2122/2124 2500 DZ OVC002 TEMPO 2200/2206 0500 FG BKN001=

EFKE (06:20 UTC)

Kemi-Tornio Airport

METAR

EFKE 210620Z AUTO 20017G26KT 170V240 CAVOK 12/07 Q0995=

TAF

EFKE 210525Z 2106/2115 22014KT CAVOK TEMPO 2106/2115 22018G28KT=

EFKS (06:20 UTC)

Kuusamo Airport

METAR

EFKS 210620Z AUTO 23014KT 200V260 CAVOK 09/06 Q0996=

TAF

EFKS 210525Z 2106/2115 23013KT CAVOK TEMPO 2106/2115 24017G27KT=

EFOU (06:20 UTC)

Oulu Airport

METAR

EFOU 210620Z AUTO 20011KT CAVOK 11/07 Q0999=

TAF

SHRACB

EFOU 210525Z 2106/2206 21012KT CAVOK TEMPO 2108/2114 22017G27KT TEMPO 2115/2117 7000 SHRA FEW025CB BECMG 2117/2119 15011KT BKN005 TEMPO 2118/2124 BKN004 BECMG 2200/2202 BKN020=

EFKI (06:20 UTC)

Kajaani Airport

METAR

EFKI 210620Z 21007KT 130V260 9999 FEW015 BKN200 10/07 Q1002=

TAF

EFKI 210534Z 2106/2115 21009KT CAVOK TEMPO 2107/2115 21013G23KT=

EFKK (06:20 UTC)

Kokkola-Pietarsaari/Kruunupyy Airport

METAR

EFKK 210620Z 18011KT 9999 FEW028 11/08 Q1000=

TAF

EFKK 210536Z 2106/2115 18013KT CAVOK=

EFVA (06:20 UTC)

Vaasa Airport

METAR

EFVA 210620Z AUTO 19009KT 9999 BKN020/// 12/09 Q1001=

TAF

SHRACB

EFVA 210536Z 2106/2206 16011KT CAVOK TEMPO 2112/2114 7000 SHRA FEW030CB TEMPO 2114/2116 BKN010 BECMG 2121/2123 17017G33KT TEMPO 2123/2204 SHRA SCT025CB BKN090=

EFKU (06:20 UTC)

Kuopio Airport

METAR

EFKU 210620Z 21011KT 9999 FEW022 BKN157 11/08 Q1005=

TAF

SHRA

EFKU 210534Z 2106/2206 19011KT 9999 FEW020 TEMPO 2112/2114 7000 -SHRA BKN010 BECMG 2114/2116 BKN005 TEMPO 2114/2117 4000 -DZ BKN004 BECMG 2117/2119 SCT010=

EFJY (06:20 UTC)

Jyväskylä Airport

METAR

EFJY 210620Z AUTO 19008KT 160V230 9999 FEW013 BKN128 11/08 Q1006=

TAF

RACB

EFJY 210536Z 2106/2206 17010KT CAVOK BECMG 2111/2113 6000 -RADZ BKN010 BECMG 2113/2115 BKN020 PROB30 2123/2206 SCT030CB=

EFTP (06:20 UTC)

Tampere-Pirkkala Airport

METAR

RA

EFTP 210620Z 19007KT 9999 -RA NSC 11/08 Q1007=

TAF

SHRACB

EFTP 210536Z 2106/2206 18009KT CAVOK TEMPO 2110/2113 5000 -DZ BKN007 PROB30 TEMPO 2120/2124 16015G28KT SCT030CB TEMPO 2200/2206 19018G30KT 6000 SHRA SCT010 BKN040CB=

EFPO (06:20 UTC)

Pori Airport

METAR

RA

EFPO 210620Z AUTO 17007KT 9999 -RA BKN080/// BKN100/// 11/09 Q1005=

TAF

RA

EFPO 210536Z 2106/2115 17011KT 9999 -RA FEW004 BKN016 TEMPO 2109/2112 BKN012=

EFTU (06:20 UTC)

Turku Airport

METAR

RA

EFTU 210620Z AUTO 19005KT 170V230 5000 +RA FEW013/// SCT016/// OVC026/// 11/10 Q1007=

TAF

SHRACB

EFTU 210536Z 2106/2206 17009KT 9999 -RA BKN040 TEMPO 2106/2110 BKN012 PROB30 TEMPO 2106/2109 6000 -RADZ BKN008 TEMPO 2110/2116 18015G27KT TEMPO 2118/2206 19016G31KT SHRA FEW050CB BKN080=

EFHK (06:20 UTC)

Helsinki-Vantaa Airport

METAR

EFHK 210620Z 20008KT 9999 BKN038 13/11 Q1009 NOSIG=

TAF

RA

EFHK 210536Z 2106/2206 18009KT 9999 BKN040 TEMPO 2107/2110 BKN011 PROB30 TEMPO 2108/2110 6000 -RADZ BKN007 PROB40 TEMPO 2121/2206 18017G27KT=

EFMA (06:20 UTC)

Mariehamn Airport

METAR

RA

EFMA 210620Z 12005KT 090V180 9999 -RA OVC005 12/11 Q1005=

TAF

RA

EFMA 210536Z 2106/2115 17007KT 8000 -RA BKN016 BECMG 2106/2108 4000 RA BKN006 BECMG 2108/2110 18016G28KT 9999 NSW FEW008 BKN150=

EKSB (06:20 UTC)

Sønderborg Airport

METAR

EKSB 210620Z 17011KT 150V210 CAVOK 19/13 Q0997=

TAF

SHRACB

EKSB RRA 210607Z 2106/2115 18012KT 9999 FEW030 BECMG 2106/2109 20018G28KT BECMG 2109/2111 21022G40KT 4000 RA BKN010 BKN030CB BECMG 2111/2113 25020G35KT 9999 NSW SCT020 TEMPO 2113/2115 4000 SHRAGS BKN012CB=

EKSP (06:20 UTC)

Vojens Airport

METAR

EKSP 210620Z 17014KT 9999 FEW043 SCT140 BKN180 17/13 Q0996 BECMG 18014G28KT=

TAF

SHRACB

EKSP 210501Z 2106/2206 19010KT 9999 BKN030 BECMG 2106/2108 18014G28KT 4000 RA BKN008 BECMG 2108/2111 21026G48KT 9999 SCT020 BECMG 2112/2115 25022G38KT TEMPO 2112/2123 2500 SHRA BKN020CB BECMG 2115/2118 25015G32KT BECMG 2118/2121 24012KT TEMPO 2123/2206 6000 -SHRA SCT020CB=

EKEB (06:20 UTC)

Esbjerg Airport

METAR

EKEB 210620Z AUTO 16012G22KT 120V190 9999NDV FEW040/// BKN140/// 17/14 Q0994=

TAF

SHRACB

EKEB 210524Z 2106/2115 16015KT 9999 FEW030 BECMG 2106/2107 18018G28KT BECMG 2107/2109 21025G45KT 4000 RA BKN010 BKN030CB BECMG 2109/2111 25022G40KT 9999 SCT020 TEMPO 2111/2115 SHRA SCT020CB=

EKYT (06:20 UTC)

Aalborg Airport

METAR

EKYT 210620Z AUTO 16015KT 9999NDV FEW055/// BKN150/// 18/14 Q0994=

TAF

TSSHRACB

EKYT 210505Z 2106/2206 17012KT 9999 SCT020 BKN050 BECMG 2106/2109 16015G28KT BECMG 2109/2111 18022G38KT 4000 RA BKN008 BECMG 2111/2113 21028G42KT 9999 NSW SCT020 TEMPO 2113/2119 23032G55KT 3000 SHRA BKN012 SCT020CB PROB40 TEMPO 2116/2119 TSRAGS BECMG 2119/2122 25014G28KT TEMPO 2119/2206 6000 -SHRA SCT020CB=

EKKA (06:21 UTC)

Karup Airport

METAR

EKKA 210621Z AUTO 17011G22KT 9999NDV FEW046/// BKN150/// 17/14 Q0994 NOSIG=

TAF

SHRACB

EKKA 210506Z 2106/2206 19010KT 9999 BKN030 BECMG 2106/2108 18014G28KT 4000 RA BKN008 BECMG 2108/2111 21028G50KT 9999 SCT020 BECMG 2112/2115 25022G38KT TEMPO 2112/2122 2500 SHRA BKN020CB BECMG 2115/2118 25018G32KT BECMG 2118/2121 25010KT TEMPO 2122/2206 6000 -SHRA SCT020CB=

EKBI (06:20 UTC)

Billund Airport

METAR

EKBI 210620Z AUTO 16010KT 130V190 9999NDV BKN140/// 16/13 Q0995=

TAF

SHRACB

EKBI 210510Z 2106/2206 18010KT 9999 FEW030 BECMG 2106/2108 19018G28KT BECMG 2108/2110 21025G42KT 4000 RA BKN010 BKN030CB BECMG 2110/2112 24020G35KT 9999 NSW SCT020 TEMPO 2112/2202 SHRA SCT020CB BECMG 2115/2118 24015KT TEMPO 2202/2206 FEW020CB=

EKVD (05:50 UTC)

Kolding Airport

METAR

EKVD 210550Z 18011KT 150V210 CAVOK 17/13 Q0997=

TAF

Ingen TAF hittades.

EKOD (05:50 UTC)

Odense Airport

METAR

EKOD 210550Z 18014KT 150V210 9999 SCT016 BKN160 18/14 Q0998=

TAF

Ingen TAF hittades.

EKCH (06:20 UTC)

Copenhagen Airport, Kastrup

METAR

EKCH 210620Z 18015KT CAVOK 19/14 Q1001 NOSIG=

TAF

SHRACB

EKCH 210452Z 2106/2206 17015KT 9999 FEW030 TEMPO 2108/2111 18020G32KT BECMG 2111/2113 21022G40KT 4000 RA BKN012 BKN030CB BECMG 2113/2115 24020G32KT 9999 NSW SCT030 TEMPO 2115/2123 FEW020CB TEMPO 2123/2206 SHRA SCT020CB=

EKRK (06:20 UTC)

Copenhagen Airport, Roskilde

METAR

EKRK 210620Z AUTO 17012KT 9999NDV NCD 18/13 Q1001=

TAF

RACB

EKRK AAA 210531Z 2106/2115 17012KT 9999 FEW030 TEMPO 2108/2110 18017G27KT BECMG 2110/2112 21020G40KT 4000 RA BKN010 BKN030CB BECMG 2112/2114 24020G32KT 9999 NSW SCT030 TEMPO 2114/2115 FEW020CB=

ENRY (05:50 UTC)

Moss flygplats, Rygge

METAR

ENRY 210550Z AUTO 09004KT 9999NDV BKN004/// OVC006/// 10/09 Q0994=

TAF

SHRABRCB

ENRY 210500Z 2106/2206 07008KT 9999 -RA SCT010 BKN020 TEMPO 2106/2107 2500 RADZ BR OVC004 BECMG 2106/2108 18020G35KT TEMPO 2110/2121 19035G55KT 4000 SHRA BKN012 SCT020CB BECMG 2121/2123 24020G35KT=

ENGM (05:50 UTC)

Oslo flygplats, Gardermoen

METAR

RA

ENGM 210550Z 03005KT 360V070 6000 3000E -RA FEW007 OVC021 07/06 Q0996 TEMPO 4000 -DZ BR BKN012=

TAF

SHRABRCB

ENGM 210500Z 2106/2206 04008KT 9999 -RA FEW015 BKN030 TEMPO 2106/2110 2500 RADZ BR OVC004 BECMG 2109/2111 18018G28KT TEMPO 2111/2122 18028G45KT 4000 SHRA BKN012 SCT020CB BECMG 2123/2201 23015KT TEMPO 2201/2206 25018G30KT=

ENTO (05:50 UTC)

Sandefjord flygplats, Torp

METAR

ENTO 210550Z 03005KT 360V050 9000 OVC003 09/09 Q0994=

TAF

SHRABRCB

ENTO 210500Z 2106/2206 06008KT 9000 -RA SCT005 BKN015 TEMPO 2106/2107 2500 RADZ BR OVC003 BECMG 2106/2108 18020G35KT TEMPO 2110/2120 19035G50KT 4000 SHRA BKN012 SCT020CB BECMG 2120/2122 24025G38KT=

ENCN (05:50 UTC)

Kristiansand flygplats, Kjevik

METAR

RA

ENCN 210550Z 15013KT 120V190 8000 -RA FEW005 SCT041 BKN068 16/15 Q0990=

TAF

SHRABRCB

ENCN 210500Z 2106/2115 18022KT 9000 -RA SCT008 BKN018 TEMPO 2106/2107 19025G35KT 3000 RA BR OVC004 TEMPO 2107/2115 19028G48KT 4000 SHRA BR BKN010 SCT020CB=

ENZV (05:50 UTC)

Stavanger-Sola flygplats

METAR

RA

ENZV 210550Z 13016KT 7000 RA FEW005 SCT010 BKN015 13/12 Q0983 TEMPO 4000 RA BKN014 BECMG 17030G40KT=

TAF

SHRACB

ENZV 210500Z 2106/2206 07008KT 9000 -RA SCT015 BKN030 TEMPO 2106/2119 4000 RA BKN012 BECMG 2106/2107 17030G40KT BECMG 2111/2113 15018KT BECMG 2114/2117 32035G45KT TEMPO 2116/2124 32045G58KT PROB40 TEMPO 2119/2206 SHRA BKN020CB BECMG 2203/2206 28022G35KT=

ENHD (05:50 UTC)

Haugesund flygplats, Karmøy

METAR

RA

ENHD 210550Z 36015KT 6000 RA FEW010 BKN017 BKN027 09/08 Q0984=

TAF

RABR

ENHD 210500Z 2106/2115 02015KT 9999 -RA SCT015 BKN025 TEMPO 2106/2115 4000 RA BR BKN009 BECMG 2107/2109 17030G40KT BECMG 2110/2112 15015KT BECMG 2113/2115 33015KT=

ENBR (05:50 UTC)

Bergen flygplats, Flesland

METAR

RA

ENBR 210550Z 06007KT 020V090 9999 -RA FEW018 SCT028 BKN042 09/05 Q0988 BECMG 36015KT TEMPO 4000 RA BR BKN008 RMK WIND 1200FT 07010KT=

TAF

SHRABRCB

ENBR 210500Z 2106/2206 03005KT 9999 -RA FEW015 BKN035 PROB40 2106/2110 36015KT TEMPO 2108/2119 4000 RA BR BKN008 BECMG 2115/2117 32025KT TEMPO 2115/2124 33030G45KT TEMPO 2119/2206 4000 SHRAGS BKN012 SCT020CB BECMG 2203/2206 28015G25KT=

ENBL (05:50 UTC)

Førde flygplats, Bringeland

METAR

ENBL 210550Z 05006KT 9999 FEW/// SCT090 07/05 Q0990=

TAF

Ingen TAF hittades.

ENOV (05:50 UTC)

Ørsta-Volda flygplats, Hovden

METAR

ENOV 210550Z VRB02KT 9999 FEW015 SCT040 BKN050 10/06 Q0991 RMK WIND 2175FT 13012KT=

TAF

Ingen TAF hittades.

ENML (05:50 UTC)

Molde flygplats, Årø

METAR

ENML 210550Z 02006KT 9999 FEW040 BKN055 10/06 Q0992=

TAF

ENML 210500Z 2106/2115 VRB06KT 9999 FEW025 BKN050 BECMG 2110/2112 06010KT=

ENKB (05:50 UTC)

Kristiansund flygplats, Kvernberget

METAR

ENKB 210550Z VRB03KT 9999 BKN053 10/07 Q0993 RMK WIND 745FT 23008KT=

TAF

ENKB 210500Z 2106/2115 VRB06KT 9999 FEW025 BKN040 BECMG 2110/2112 06010KT=

ENRO (05:50 UTC)

Røros flygplats

METAR

ENRO 210550Z 34005KT CAVOK 01/M00 Q0996=

TAF

RABR

ENRO 210500Z 2106/2115 14008KT 9999 SCT030 BKN050 BECMG 2108/2110 BKN012 TEMPO 2109/2115 12015G25KT 4000 RA BR OVC008=

ENVA (05:50 UTC)

Trondheim flygplats, Værnes

METAR

ENVA 210550Z 07004KT 040V130 CAVOK 04/01 Q0995 NOSIG RMK WIND 670FT 13008KT=

TAF

RA

ENVA 210500Z 2106/2206 11007KT 9999 FEW040 BKN060 TEMPO 2109/2201 16015G25KT RA BECMG 2201/2203 26028G40KT TEMPO 2201/2206 4000 RA BKN014=

ENOL (05:50 UTC)

Ørland flygplats

METAR

ENOL 210550Z 26009KT 9999 FEW014 SCT018 09/08 Q0994 NOSIG=

TAF

RA

ENOL 210500Z 2106/2206 16008KT 9999 SCT030 BKN100 BECMG 2109/2112 10012KT TEMPO 2117/2120 03007KT BECMG 2200/2202 24040G50KT RA BKN014 PROB30 TEMPO 2201/2204 26050G65KT BECMG 2203/2206 25030G40KT=

ENRM (05:50 UTC)

Rørvik flygplats, Ryum

METAR

SHRA

ENRM 210550Z 21021KT 9999 VCSH FEW020 SCT030 11/07 Q0993=

TAF

SHRACB

ENRM RRA 210500Z 2106/2115 22020KT 9999 -SHRA FEW010 BKN020 TEMPO 2106/2107 22025G35KT SHRA BKN020CB BECMG 2108/2110 16008KT=

ENBN (05:50 UTC)

Brønnøysund flygplats, Brønnøy

METAR

SHRACB

ENBN 210550Z 22019KT 9999 -SHRA FEW010 SCT018CB BKN030 10/06 Q0992=

TAF

SHRACB

ENBN 210500Z 2106/2115 20020KT 9999 SCT030 TEMPO 2106/2110 -SHRA SCT012CB BKN030 BECMG 2110/2112 VRB05KT=

ENRA (05:50 UTC)

Mo i Rana flygplats, Røssvoll

METAR

SHRA

ENRA 210550Z 28010KT 9999 -SHRA FEW020 SCT033 BKN040 09/05 Q0991=

TAF

SHRACB

ENRA 210500Z 2106/2115 VRB05KT 9999 -SHRA FEW015 BKN035 TEMPO 2106/2109 25015G25KT SHRA SCT015CB BKN025=

ENBO (05:50 UTC)

Bodö flygplats

METAR

SHRACB

ENBO 210550Z 22028KT 9999 VCSH FEW015CB SCT040 10/07 Q0987 TEMPO 23030G45KT SHRA BKN015CB=

TAF

SHRACBTCU

ENBO 210500Z 2106/2206 21028KT 9999 -SHRA FEW015TCU BKN030 TEMPO 2106/2109 22035G45KT SHRA BKN014CB PROB40 2106/2108 18015KT TEMPO 2109/2112 22025G35KT BECMG 2112/2115 20012KT BECMG 2115/2118 10008KT=

ENSH (05:50 UTC)

Svolvær flygplats, Helle

METAR

SHRA

ENSH 210550Z 22027KT 9999 VCSH FEW020 BKN035 11/07 Q0983 RMK WIND 150FT 19030G44KT=

TAF

SHRACBTCU

ENSH 210500Z 2106/2115 22025KT 9999 -SHRA FEW015TCU BKN025 TEMPO 2106/2112 19030G45KT SHRA BKN012CB TEMPO 2112/2115 21020G35KT=

ENAN (05:50 UTC)

Andøya flygplats

METAR

ENAN 210550Z 22021KT 9999 FEW037 BKN082 10/05 Q0981=

TAF

SHRACB

ENAN 210500Z 2106/2206 18020KT 9999 -SHRA FEW015 BKN040 TEMPO 2106/2115 23025G35KT SHRA FEW010 BKN020CB BECMG 2200/2203 06018KT TEMPO 2203/2206 RA=

ENEV (05:50 UTC)

Harstad-Narvik flygplats

METAR

RA

ENEV 210550Z 19010KT 9000 -RA SCT026 BKN033 10/07 Q0984 RMK WIND 1400FT 22025KT=

TAF

SHRACB

ENEV 210500Z 2106/2115 20009KT 9999 -SHRA FEW015 BKN035 TEMPO 2106/2115 23015G30KT 4000 SHRA SCT015CB BKN025=

ENDU (05:50 UTC)

Bardufoss flygplats

METAR

RA

ENDU 210550Z 20008KT 160V240 9999 RA FEW025 BKN040 09/07 Q0983 TEMPO 21015G25KT SHRA SCT030CB RMK WIND 1100FT 20019KT WIND 2200FT 20028KT=

TAF

SHRACB

ENDU 210500Z 2106/2206 21008KT 9999 -SHRA FEW035 BKN050 TEMPO 2106/2109 SHRA SCT030CB BKN040 TEMPO 2106/2115 23018G28KT=

ENTC (05:50 UTC)

Tromsø flygplats

METAR

RA

ENTC 210550Z 23013KT 9999 -RA SCT038 OVC053 10/06 Q0982 NOSIG RMK WIND 2600FT 20028G43KT=

TAF

SHRACBTCU

ENTC 210500Z 2106/2206 20018KT 9999 -SHRA FEW015TCU BKN040 TEMPO 2106/2115 SHRA SCT018CB TEMPO 2116/2124 20008KT BECMG 2121/2123 02010KT=

ENAT (05:50 UTC)

Alta flygplats

METAR

SHRA

ENAT 210550Z VRB01KT 9999 VCSH FEW021 BKN048 10/05 Q0982 RMK WIND 700FT 18009KT=

TAF

SHRA

ENAT 210500Z 2106/2115 22010KT 9999 -SHRA FEW020 SCT050 TEMPO 2106/2115 16008KT=

ENNA (05:50 UTC)

Lakselv flygplats

METAR

ENNA 210550Z 16009KT CAVOK 12/04 Q0982 RMK WIND 1800FT 27034KT=

TAF

ENNA 210500Z 2106/2206 17012KT 9999 FEW030 SCT050 TEMPO 2106/2124 22020G30KT=

ENHF (05:50 UTC)

Hammerfest flygplats

METAR

ENHF 210550Z 24010KT 9999 FEW020 SCT034 BKN057 10/06 Q0981 RMK WIND 1254FT 27012KT=

TAF

SHRATCU

ENHF 210500Z 2106/2115 21012KT 9999 -SHRA FEW020TCU BKN050 TEMPO 2106/2115 VRB05KT=

ENKR (05:50 UTC)

Kirkenes Airport, Høybuktmoen

METAR

ENKR 210550Z 23016KT CAVOK 09/04 Q0983 RMK WIND 731FT 24030KT=

TAF

ENKR 210500Z 2106/2115 22015KT 9999 SCT050=

ENLK (05:50 UTC)

Leknes Airport

METAR

ENLK 210550Z 21014KT 9999 FEW025 BKN040 11/04 Q0983=

TAF

Ingen TAF hittades.

ENNO (05:50 UTC)

Notodden Airport, Tuven

METAR

RA

ENNO 210550Z 27007KT 9999 5000NW -RA FEW005 SCT017 BKN022 08/07 Q0994 WIND THR30=

TAF

SHRABRCB

ENNO 210500Z 2106/2115 VRB08KT 9000 -RA SCT008 BKN018 PROB40 TEMPO 2106/2110 3000 RA BR OVC008 TEMPO 2108/2110 18018G28KT TEMPO 2110/2115 19028G48KT 4000 SHRA BR BKN010 SCT020CB=

ENST (05:50 UTC)

Sandnessjøen Airport, Stokka

METAR

SHRACB

ENST 210550Z 20016KT 9999 VCSH FEW015CB SCT030 09/06 Q0990 RMK WIND 300FT 21020KT=

TAF

Ingen TAF hittades.

ENSB (05:50 UTC)

Svalbard Airport, Longyear

METAR

ENSB 210550Z 04019KT 9999 FEW020 SCT035 00/M06 Q1005 RMK WIND 1400FT 08016KT=

TAF

ENSB 210500Z 2106/2206 09015KT 9999 FEW015 SCT030 TEMPO 2106/2118 12020G30KT=

ENSK (05:50 UTC)

Stokmarknes Airport, Skagen

METAR

SHRA

ENSK 210550Z 22011KT 9999 VCSH FEW025 BKN034 11/07 Q0983=

TAF

Ingen TAF hittades.